Terminal Aerodrome Forecast
Issued by NWS Atlanta, GA

Home | Current Version | Previous Version | Text Only | Print | Product List | Glossary On
Versions: 1 2 3 4 5 6 7 8 9 10 11 12 13 14 15 16 17 18 19 20 21
040
FTUS42 KFFC 201127
TAFMCN
TAF
KMCN 201127Z 2012/2112 28003KT P6SM BKN250
      TEMPO 2012/2014 5SM BR
     FM201400 08003KT P6SM FEW035 BKN250
     FM201800 13004KT P6SM FEW050 BKN250
     FM210000 00000KT P6SM BKN250
     FM210900 00000KT P6SM BKN040=

USA.gov is the U.S. government's official web portal to all federal, state and local government web resources and services.